createdAt,value
2022-08-09T00:01:01.158Z,18.90
2022-08-09T00:04:05.984Z,18.88
2022-08-09T00:06:23.101Z,18.79
2022-08-09T00:08:54.129Z,18.70
2022-08-09T00:12:03.036Z,18.62
2022-08-09T00:14:28.023Z,18.57
2022-08-09T00:17:07.388Z,18.58
2022-08-09T00:19:37.613Z,18.62
2022-08-09T00:22:09.758Z,18.62
2022-08-09T00:24:40.713Z,18.33
2022-08-09T00:27:12.621Z,18.29
2022-08-09T00:30:16.782Z,18.27
2022-08-09T00:32:31.552Z,18.29
2022-08-09T00:35:00.975Z,18.37
2022-08-09T00:37:32.583Z,18.40
2022-08-09T00:40:12.161Z,18.34
2022-08-09T00:44:13.947Z,18.28
2022-08-09T00:45:37.551Z,18.06
2022-08-09T00:48:19.819Z,18.12
2022-08-09T00:50:52.093Z,18.14
2022-08-09T00:53:23.965Z,18.13
2022-08-09T00:56:04.475Z,17.99
2022-08-09T00:58:38.501Z,17.92
2022-08-09T01:01:15.958Z,17.90
2022-08-09T01:03:51.178Z,17.86
2022-08-09T01:06:53.428Z,17.83
2022-08-09T01:09:23.899Z,17.75
2022-08-09T01:11:57.365Z,17.67
2022-08-09T01:14:31.825Z,17.54
2022-08-09T01:17:05.183Z,17.52
2022-08-09T01:19:57.281Z,17.53
2022-08-09T01:22:55.014Z,17.57
2022-08-09T01:25:29.517Z,17.56
2022-08-09T01:28:04.054Z,17.56
2022-08-09T01:30:52.703Z,17.38
2022-08-09T01:33:24.456Z,17.27
2022-08-09T01:35:56.128Z,17.31
2022-08-09T01:38:30.083Z,17.46
2022-08-09T01:41:05.208Z,17.45
2022-08-09T01:43:51.070Z,17.46
2022-08-09T01:46:24.797Z,17.42
2022-08-09T01:48:57.315Z,17.34
2022-08-09T01:51:32.581Z,17.34
2022-08-09T01:54:04.363Z,17.25
2022-08-09T01:56:35.151Z,17.24
2022-08-09T01:59:10.808Z,17.25
2022-08-09T02:01:59.278Z,17.24
2022-08-09T02:04:30.312Z,17.22
2022-08-09T02:07:17.862Z,17.14
2022-08-09T02:10:06.713Z,17.14
2022-08-09T02:12:37.507Z,17.09
2022-08-09T02:15:16.806Z,17.14
2022-08-09T02:18:00.930Z,17.15
2022-08-09T02:20:43.261Z,17.13
2022-08-09T02:23:17.116Z,17.04
2022-08-09T02:25:52.544Z,16.95
2022-08-09T02:28:24.685Z,16.88
2022-08-09T02:31:02.979Z,16.89
2022-08-09T02:34:06.430Z,16.88
2022-08-09T02:36:37.794Z,16.89
2022-08-09T02:39:20.063Z,16.81
2022-08-09T02:42:00.472Z,16.78
2022-08-09T02:44:37.044Z,16.69
2022-08-09T02:47:11.106Z,16.61
2022-08-09T02:49:45.133Z,16.57
2022-08-09T02:52:16.821Z,16.49
2022-08-09T02:54:53.988Z,16.44
2022-08-09T02:57:25.439Z,16.43
2022-08-09T03:00:21.375Z,16.51
2022-08-09T03:02:59.925Z,16.53
2022-08-09T03:05:34.496Z,16.63
2022-08-09T03:08:05.480Z,16.62
2022-08-09T03:10:36.845Z,16.65
2022-08-09T03:13:08.469Z,16.57
2022-08-09T03:16:05.891Z,16.45
2022-08-09T03:18:32.527Z,16.39
2022-08-09T03:21:03.681Z,16.34
2022-08-09T03:23:33.480Z,16.25
2022-08-09T03:26:04.893Z,16.24
2022-08-09T03:28:35.441Z,16.28
2022-08-09T03:31:20.992Z,16.28
2022-08-09T03:33:56.630Z,16.25
2022-08-09T03:36:28.143Z,16.15
2022-08-09T03:38:58.046Z,16.18
2022-08-09T03:41:29.886Z,16.15
2022-08-09T03:44:15.486Z,16.16
2022-08-09T03:46:46.451Z,16.27
2022-08-09T03:49:21.257Z,16.34
2022-08-09T03:52:00.127Z,16.33
2022-08-09T03:54:32.758Z,16.36
2022-08-09T03:57:18.712Z,16.49
2022-08-09T03:59:54.971Z,16.44
2022-08-09T04:02:27.974Z,16.42
2022-08-09T04:05:05.849Z,16.40
2022-08-09T04:07:52.601Z,16.39
2022-08-09T04:10:28.998Z,16.29
2022-08-09T04:13:01.191Z,16.24
2022-08-09T04:15:52.487Z,16.14
2022-08-09T04:18:25.157Z,16.13
2022-08-09T04:20:57.236Z,16.10
2022-08-09T04:23:26.648Z,16.06
2022-08-09T04:25:56.429Z,15.96
2022-08-09T04:28:36.021Z,15.83
2022-08-09T04:31:09.524Z,15.77
2022-08-09T04:33:51.869Z,15.70
2022-08-09T04:36:27.463Z,15.72
2022-08-09T04:38:57.805Z,15.81
2022-08-09T04:41:32.987Z,15.88
2022-08-09T04:44:06.558Z,15.92
2022-08-09T04:46:59.882Z,15.94
2022-08-09T04:49:53.515Z,15.92
2022-08-09T04:52:26.465Z,16.04
2022-08-09T04:54:56.950Z,16.15
2022-08-09T04:57:26.360Z,16.19
2022-08-09T04:59:57.108Z,16.25
2022-08-09T05:02:27.444Z,16.33
2022-08-09T05:04:57.229Z,16.33
2022-08-09T05:07:32.040Z,16.27
2022-08-09T05:10:02.398Z,16.12
2022-08-09T05:12:32.997Z,16.05
2022-08-09T05:15:11.579Z,16.12
2022-08-09T05:18:38.837Z,16.33
2022-08-09T05:20:31.405Z,16.41
2022-08-09T05:23:53.574Z,16.46
2022-08-09T05:25:56.865Z,16.59
2022-08-09T05:28:26.374Z,16.78
2022-08-09T05:30:56.002Z,16.89
2022-08-09T05:33:26.491Z,17.01
2022-08-09T05:36:04.097Z,17.00
2022-08-09T05:38:39.349Z,17.01
2022-08-09T05:41:12.849Z,17.13
2022-08-09T05:43:44.994Z,17.25
2022-08-09T05:46:15.733Z,17.37
2022-08-09T05:48:45.152Z,17.44
2022-08-09T05:51:42.378Z,17.41
2022-08-09T05:54:15.421Z,17.51
2022-08-09T05:56:54.423Z,17.64
2022-08-09T05:59:24.978Z,17.82
2022-08-09T06:01:58.589Z,17.99
2022-08-09T06:04:35.071Z,18.13
2022-08-09T06:07:04.804Z,18.23
2022-08-09T06:09:53.973Z,18.28
2022-08-09T06:12:32.685Z,18.41
2022-08-09T06:15:05.898Z,18.56
2022-08-09T06:17:40.613Z,18.66
2022-08-09T06:20:10.987Z,18.81
2022-08-09T06:22:40.871Z,18.94
2022-08-09T06:25:17.783Z,19.07
2022-08-09T06:27:51.368Z,19.21
2022-08-09T06:30:21.463Z,19.39
2022-08-09T06:33:00.112Z,19.47
2022-08-09T06:35:57.296Z,19.55
2022-08-09T06:38:32.276Z,19.61
2022-08-09T06:41:19.206Z,19.73
2022-08-09T06:43:50.144Z,19.87
2022-08-09T06:46:40.235Z,20.02
2022-08-09T06:49:10.987Z,20.08
2022-08-09T06:51:41.322Z,20.19
2022-08-09T06:54:14.781Z,20.29
2022-08-09T06:56:47.142Z,20.37
2022-08-09T07:00:52.321Z,20.47
2022-08-09T07:02:06.242Z,20.64
2022-08-09T07:04:36.248Z,20.76
2022-08-09T07:07:06.176Z,20.84
2022-08-09T07:09:57.412Z,20.93
2022-08-09T07:12:38.757Z,20.99
2022-08-09T07:16:39.378Z,21.10
2022-08-09T07:18:02.324Z,21.31
2022-08-09T07:20:32.384Z,21.50
2022-08-09T07:23:01.765Z,21.69
2022-08-09T07:25:47.555Z,21.92
2022-08-09T07:28:26.380Z,22.03
2022-08-09T07:30:57.857Z,22.08
2022-08-09T07:33:27.274Z,22.26
2022-08-09T07:36:17.328Z,22.36
2022-08-09T07:38:55.149Z,22.41
2022-08-09T07:41:33.137Z,22.53
2022-08-09T07:44:11.794Z,22.63
2022-08-09T07:46:41.381Z,22.72
2022-08-09T07:49:15.363Z,22.85
2022-08-09T07:52:05.256Z,23.03
2022-08-09T07:54:34.539Z,23.02
2022-08-09T07:57:04.170Z,23.08
2022-08-09T07:59:50.989Z,23.20
2022-08-09T08:02:42.263Z,23.13
2022-08-09T08:05:18.847Z,23.15
2022-08-09T08:08:44.450Z,23.24
2022-08-09T08:10:38.152Z,23.38
2022-08-09T08:13:18.163Z,23.41
2022-08-09T08:15:52.265Z,23.53
2022-08-09T08:18:21.854Z,23.67
2022-08-09T08:20:51.686Z,23.78
2022-08-09T08:23:21.253Z,23.81
2022-08-09T08:26:08.342Z,23.81
2022-08-09T08:28:41.095Z,23.86
2022-08-09T08:31:14.587Z,24.00
2022-08-09T08:33:52.653Z,24.08
2022-08-09T08:36:28.820Z,24.17
2022-08-09T08:38:59.706Z,24.32
2022-08-09T08:41:51.169Z,24.40
2022-08-09T08:44:27.204Z,24.49
2022-08-09T08:47:04.611Z,24.52
2022-08-09T08:49:48.161Z,24.58
2022-08-09T08:55:09.011Z,24.92
2022-08-09T08:57:38.735Z,24.96
2022-08-09T09:00:16.951Z,24.96
2022-08-09T09:02:55.841Z,25.15
2022-08-09T09:05:57.942Z,25.29
2022-08-09T09:08:30.562Z,25.38
2022-08-09T09:11:03.485Z,25.45
2022-08-09T09:13:34.782Z,25.52
2022-08-09T09:16:29.775Z,25.52
2022-08-09T09:22:00.505Z,25.42
2022-08-09T09:24:30.884Z,25.63
2022-08-09T09:27:03.173Z,25.86
2022-08-09T09:29:58.039Z,25.83
2022-08-09T09:32:35.174Z,25.88
2022-08-09T09:35:15.641Z,25.82
2022-08-09T09:37:48.378Z,25.94
2022-08-09T09:40:17.980Z,26.16
2022-08-09T09:42:57.332Z,26.40
2022-08-09T09:45:29.470Z,26.43
2022-08-09T09:48:05.855Z,26.25
2022-08-09T09:50:50.591Z,26.30
2022-08-09T09:53:34.403Z,26.57
2022-08-09T09:56:20.150Z,26.62
2022-08-09T09:59:01.350Z,26.73
2022-08-09T10:01:38.295Z,26.98
2022-08-09T10:04:23.060Z,27.02
2022-08-09T10:07:10.072Z,27.22
2022-08-09T10:09:54.686Z,27.18
2022-08-09T10:12:29.695Z,27.24
2022-08-09T10:15:17.607Z,27.40
2022-08-09T10:18:12.903Z,27.52
2022-08-09T10:20:45.110Z,27.63
2022-08-09T10:23:22.734Z,27.76
2022-08-09T10:26:07.755Z,27.94
2022-08-09T15:54:07.445Z,31.20
2022-08-09T15:56:50.447Z,31.18
2022-08-09T15:59:21.731Z,31.18
2022-08-09T16:01:52.552Z,31.20
2022-08-09T16:04:23.121Z,31.21
2022-08-09T16:06:52.637Z,31.13
2022-08-09T16:09:32.695Z,31.04
2022-08-09T16:12:15.880Z,30.91
2022-08-09T16:14:45.885Z,31.01
2022-08-09T16:17:17.046Z,31.12
2022-08-09T16:19:49.574Z,31.16
2022-08-09T16:22:35.351Z,31.13
2022-08-09T16:25:08.565Z,31.13
2022-08-09T16:27:38.171Z,31.21
2022-08-09T16:30:15.289Z,31.30
2022-08-09T16:33:15.733Z,31.30
2022-08-09T16:35:57.417Z,31.29
2022-08-09T16:38:29.722Z,31.29
2022-08-09T16:41:03.907Z,31.25
2022-08-09T16:43:33.833Z,31.29
2022-08-09T16:46:10.746Z,31.29
2022-08-09T16:48:53.174Z,31.37
2022-08-09T16:51:28.813Z,31.44
2022-08-09T16:56:50.314Z,31.41
2022-08-09T16:59:19.757Z,31.44
2022-08-09T17:01:53.094Z,31.36
2022-08-09T17:04:28.054Z,31.38
2022-08-09T17:08:40.958Z,31.42
2022-08-09T17:09:47.961Z,31.45
2022-08-09T17:12:20.099Z,31.51
2022-08-09T17:14:53.680Z,31.57
2022-08-09T17:17:27.872Z,31.72
2022-08-09T17:20:29.003Z,31.87
2022-08-09T17:22:50.017Z,31.97
2022-08-09T17:25:22.072Z,31.84
2022-08-09T17:27:55.716Z,31.91
2022-08-09T17:30:26.317Z,31.84
2022-08-09T17:32:57.566Z,31.82
2022-08-09T17:35:34.497Z,31.73
2022-08-09T17:38:13.862Z,31.74
2022-08-09T17:40:54.513Z,31.75
2022-08-09T17:43:33.891Z,31.76
2022-08-09T17:46:06.346Z,31.84
2022-08-09T17:48:38.786Z,31.92
2022-08-09T17:51:17.273Z,31.94
2022-08-09T17:53:51.863Z,31.78
2022-08-09T17:56:27.069Z,31.60
2022-08-09T17:59:03.162Z,31.35
2022-08-09T18:01:40.759Z,30.98
2022-08-09T18:04:22.850Z,30.51
2022-08-09T18:06:55.074Z,30.09
2022-08-09T18:09:40.720Z,29.75
2022-08-09T18:12:17.186Z,29.51
2022-08-09T18:14:54.398Z,29.30
2022-08-09T18:17:27.687Z,29.13
2022-08-09T18:20:55.190Z,28.94
2022-08-09T18:23:05.040Z,28.81
2022-08-09T18:25:50.345Z,28.70
2022-08-09T18:30:42.197Z,28.57
2022-08-09T18:31:14.893Z,28.49
2022-08-09T18:33:54.100Z,28.39
2022-08-09T18:36:25.570Z,28.29
2022-08-09T18:39:02.913Z,28.20
2022-08-09T18:41:34.282Z,28.09
2022-08-09T18:44:13.561Z,28.01
2022-08-09T18:47:08.422Z,27.97
2022-08-09T18:49:43.500Z,27.83
2022-08-09T18:52:18.719Z,27.76
2022-08-09T18:54:54.400Z,27.69
2022-08-09T18:57:24.093Z,27.59
2022-08-09T19:00:16.633Z,27.50
2022-08-09T19:02:54.097Z,27.44
2022-08-09T19:05:48.708Z,27.36
2022-08-09T19:08:14.063Z,27.32
2022-08-09T19:10:48.219Z,27.20
2022-08-09T19:13:20.272Z,27.14
2022-08-09T19:15:52.287Z,27.05
2022-08-09T19:18:33.903Z,27.02
2022-08-09T19:21:09.604Z,26.97
2022-08-09T19:24:37.669Z,26.85
2022-08-09T19:26:31.576Z,26.78
2022-08-09T19:29:02.563Z,26.76
2022-08-09T19:31:44.926Z,26.68
2022-08-09T19:34:22.026Z,26.60
2022-08-09T19:36:52.960Z,26.50
2022-08-09T19:39:43.510Z,26.41
2022-08-09T19:42:15.154Z,26.30
2022-08-09T19:44:50.656Z,26.27
2022-08-09T19:47:23.220Z,26.22
2022-08-09T19:50:07.252Z,26.17
2022-08-09T19:52:51.446Z,26.16
2022-08-09T19:55:30.886Z,26.13
2022-08-09T19:58:16.569Z,26.09
2022-08-09T20:00:47.761Z,26.03
2022-08-09T20:04:18.484Z,26.06
2022-08-09T20:06:22.202Z,26.02
2022-08-09T20:08:55.285Z,25.96
2022-08-09T20:11:26.953Z,25.86
2022-08-09T20:13:56.650Z,25.77
2022-08-09T20:16:35.865Z,25.67
2022-08-09T20:19:48.965Z,25.55
2022-08-09T20:22:01.752Z,25.44
2022-08-09T20:24:34.526Z,25.38
2022-08-09T20:27:05.781Z,25.29
2022-08-09T20:29:38.826Z,25.29
2022-08-09T20:32:30.414Z,25.24
2022-08-09T20:34:58.566Z,25.23
2022-08-09T20:37:37.876Z,25.20
2022-08-09T20:40:26.367Z,25.18
2022-08-09T20:43:11.853Z,25.14
2022-08-09T20:46:01.657Z,25.00
2022-08-09T20:48:39.065Z,24.91
2022-08-09T20:51:19.381Z,24.83
2022-08-09T20:53:52.134Z,24.76
2022-08-09T20:56:26.144Z,24.73
2022-08-09T20:58:58.745Z,24.69
2022-08-09T21:01:34.217Z,24.59
2022-08-09T21:05:52.670Z,24.52
2022-08-09T21:07:11.386Z,24.54
2022-08-09T21:09:56.066Z,24.48
2022-08-09T21:15:18.033Z,24.26
2022-08-09T21:18:23.188Z,24.19
2022-08-09T21:20:43.316Z,24.22
2022-08-09T21:23:18.218Z,24.12
2022-08-09T21:25:59.791Z,24.02
2022-08-09T21:28:34.949Z,23.95
2022-08-09T21:31:13.598Z,23.90
2022-08-09T21:33:50.461Z,23.85
2022-08-09T21:36:23.491Z,23.71
2022-08-09T21:38:57.912Z,23.67
2022-08-09T21:42:04.353Z,23.61
2022-08-09T21:44:34.029Z,23.59
2022-08-09T21:47:07.368Z,23.61
2022-08-09T21:49:39.270Z,23.59
2022-08-09T21:52:16.897Z,23.50
2022-08-09T21:54:49.721Z,23.36
2022-08-09T21:57:38.413Z,23.28
2022-08-09T22:00:25.749Z,23.33
2022-08-09T22:02:58.202Z,23.30
2022-08-09T22:05:37.651Z,23.29
2022-08-09T22:08:14.731Z,23.26
2022-08-09T22:11:00.796Z,23.23
2022-08-09T22:13:42.366Z,23.18
2022-08-09T22:16:13.641Z,23.15
2022-08-09T22:18:54.103Z,23.13
2022-08-09T22:21:25.012Z,23.08
2022-08-09T22:24:01.182Z,23.05
2022-08-09T22:26:35.192Z,23.04
2022-08-09T22:29:10.442Z,23.03
2022-08-09T22:31:44.197Z,23.04
2022-08-09T22:34:15.160Z,23.05
2022-08-09T22:36:46.036Z,23.05
2022-08-09T22:39:47.015Z,22.96
2022-08-09T22:42:20.669Z,22.93
2022-08-09T22:45:00.585Z,22.91
2022-08-09T22:48:18.406Z,22.85
2022-08-09T22:50:33.246Z,22.79
2022-08-09T22:53:04.335Z,22.74
2022-08-09T22:56:06.108Z,22.68
2022-08-09T22:58:32.446Z,22.68
2022-08-09T23:01:06.195Z,22.64
2022-08-09T23:04:03.694Z,22.56
2022-08-09T23:06:35.259Z,22.55
2022-08-09T23:09:04.040Z,22.47
2022-08-09T23:11:33.402Z,22.40
2022-08-09T23:14:03.641Z,22.37
2022-08-09T23:16:35.816Z,22.36
2022-08-09T23:19:05.137Z,22.33
2022-08-09T23:21:34.886Z,22.32
2022-08-09T23:24:07.779Z,22.33
2022-08-09T23:26:38.196Z,22.27
2022-08-09T23:29:08.356Z,22.17
2022-08-09T23:31:40.473Z,22.04
2022-08-09T23:34:09.914Z,22.01
2022-08-09T23:36:39.343Z,21.97
2022-08-09T23:39:09.355Z,21.94
2022-08-09T23:41:38.804Z,21.86
2022-08-09T23:44:08.268Z,21.83
2022-08-09T23:46:40.449Z,21.71
2022-08-09T23:49:11.414Z,21.70
2022-08-09T23:51:40.784Z,21.66
2022-08-09T23:54:10.172Z,21.57
2022-08-09T23:56:54.411Z,21.55
2022-08-09T23:59:25.757Z,21.52
